createdAt,value
2023-03-19T00:01:21.335Z,19
2023-03-19T00:06:21.337Z,26
2023-03-19T00:11:21.326Z,24
2023-03-19T00:16:21.338Z,24
2023-03-19T00:21:21.329Z,19
2023-03-19T00:26:21.341Z,21
2023-03-19T00:31:21.342Z,22
2023-03-19T00:36:21.343Z,23
2023-03-19T00:41:21.345Z,22
2023-03-19T00:46:21.334Z,21
2023-03-19T00:51:21.346Z,19
2023-03-19T00:56:21.337Z,19
2023-03-19T01:01:21.349Z,19
2023-03-19T01:06:21.350Z,16
2023-03-19T01:11:21.340Z,19
2023-03-19T01:16:21.353Z,21
2023-03-19T01:26:21.354Z,19
2023-03-19T01:31:21.356Z,17
2023-03-19T01:36:21.357Z,12
2023-03-19T01:41:21.359Z,18
2023-03-19T01:46:21.348Z,19
2023-03-19T01:51:21.360Z,19
2023-03-19T01:56:21.350Z,22
2023-03-19T02:01:21.363Z,16
2023-03-19T02:06:21.364Z,15
2023-03-19T02:11:21.354Z,23
2023-03-19T02:16:21.367Z,19
2023-03-19T02:21:21.356Z,19
2023-03-19T02:26:21.368Z,20
2023-03-19T02:31:21.369Z,19
2023-03-19T02:36:21.371Z,15
2023-03-19T02:41:21.372Z,17
2023-03-19T02:46:21.362Z,19
2023-03-19T02:51:21.374Z,19
2023-03-19T02:56:21.364Z,27
2023-03-19T03:01:21.376Z,23
2023-03-19T03:06:21.377Z,17
2023-03-19T03:11:21.443Z,14
2023-03-19T03:16:21.380Z,16
2023-03-19T03:21:21.370Z,19
2023-03-19T03:31:21.372Z,19
2023-03-19T03:36:21.384Z,20
2023-03-19T03:41:21.385Z,21
2023-03-19T03:46:21.376Z,18
2023-03-19T03:51:21.430Z,19
2023-03-19T03:56:21.378Z,17
2023-03-19T04:01:21.390Z,20
2023-03-19T04:06:21.391Z,20
2023-03-19T04:11:21.393Z,19
2023-03-19T04:16:21.394Z,20
2023-03-19T04:21:21.384Z,21
2023-03-19T04:26:21.396Z,15
2023-03-19T04:31:21.386Z,18
2023-03-19T04:36:21.399Z,20
2023-03-19T04:41:21.400Z,16
2023-03-19T04:46:21.390Z,22
2023-03-19T04:51:26.609Z,21
2023-03-19T04:56:21.392Z,17
2023-03-19T05:01:21.405Z,23
2023-03-19T05:06:21.406Z,20
2023-03-19T05:11:21.407Z,23
2023-03-19T05:16:21.409Z,20
2023-03-19T05:21:21.398Z,21
2023-03-19T05:26:21.410Z,23
2023-03-19T05:31:21.401Z,20
2023-03-19T05:36:21.413Z,20
2023-03-19T05:41:21.414Z,18
2023-03-19T05:46:21.415Z,18
2023-03-19T05:51:24.373Z,23
2023-03-19T05:56:21.407Z,24
2023-03-19T06:01:21.419Z,20
2023-03-19T06:06:21.409Z,16
2023-03-19T06:11:21.421Z,22
2023-03-19T06:16:21.422Z,18
2023-03-19T06:21:21.413Z,16
2023-03-19T06:26:21.425Z,21
2023-03-19T06:31:21.415Z,16
2023-03-19T06:36:21.427Z,22
2023-03-19T06:41:21.428Z,19
2023-03-19T06:46:21.429Z,23
2023-03-19T06:56:21.421Z,22
2023-03-19T07:01:21.433Z,24
2023-03-19T07:06:21.423Z,23
2023-03-19T07:11:21.435Z,22
2023-03-19T07:16:21.436Z,20
2023-03-19T07:21:21.427Z,18
2023-03-19T07:26:21.439Z,24
2023-03-19T07:31:21.429Z,18
2023-03-19T07:36:21.441Z,20
2023-03-19T07:41:21.442Z,20
2023-03-19T07:46:21.444Z,20
2023-03-19T07:51:21.446Z,20
2023-03-19T08:01:21.447Z,17
2023-03-19T08:06:21.438Z,25
2023-03-19T08:11:21.450Z,22
2023-03-19T08:16:21.452Z,17
2023-03-19T08:21:21.442Z,17
2023-03-19T08:26:21.455Z,29
2023-03-19T08:31:21.445Z,25
2023-03-19T08:36:21.457Z,26
2023-03-19T08:41:21.459Z,21
2023-03-19T08:46:21.460Z,23
2023-03-19T08:51:21.462Z,23
2023-03-19T08:56:21.453Z,23
2023-03-19T09:01:21.465Z,22
2023-03-19T09:06:21.456Z,27
2023-03-19T09:11:21.468Z,24
2023-03-19T09:16:21.470Z,24
2023-03-19T09:21:21.461Z,22
2023-03-19T09:26:21.474Z,17
2023-03-19T09:31:21.464Z,17
2023-03-19T09:36:21.477Z,21
2023-03-19T09:41:21.478Z,26
2023-03-19T09:46:21.480Z,25
2023-03-19T09:51:21.505Z,22
2023-03-19T09:56:21.472Z,25
2023-03-19T10:01:21.488Z,26
2023-03-19T10:06:21.476Z,28
2023-03-19T10:11:21.488Z,23
2023-03-19T10:16:21.490Z,24
2023-03-19T10:21:21.481Z,27
2023-03-19T10:26:21.495Z,18
2023-03-19T10:31:21.485Z,27
2023-03-19T10:36:21.498Z,29
2023-03-19T10:41:21.489Z,23
2023-03-19T10:46:21.503Z,22
2023-03-19T10:51:21.505Z,29
2023-03-19T10:56:21.497Z,22
2023-03-19T11:01:21.511Z,33
2023-03-19T11:06:21.502Z,30
2023-03-19T11:11:21.515Z,26
2023-03-19T11:16:21.517Z,26
2023-03-19T11:21:21.520Z,33
2023-03-19T11:26:21.523Z,35
2023-03-19T11:31:21.514Z,36
2023-03-19T11:36:21.528Z,24
2023-03-19T11:41:21.520Z,27
2023-03-19T11:46:21.533Z,32
2023-03-19T11:51:21.536Z,37
2023-03-19T11:56:21.527Z,24
2023-03-19T12:01:21.541Z,25
2023-03-19T12:06:21.532Z,29
2023-03-19T12:11:21.546Z,35
2023-03-19T12:16:21.549Z,34
2023-03-19T12:21:21.552Z,39
2023-03-19T12:26:21.555Z,38
2023-03-19T12:31:21.546Z,43
2023-03-19T12:36:21.560Z,36
2023-03-19T12:41:21.551Z,35
2023-03-19T12:46:21.629Z,34
2023-03-19T12:51:21.567Z,46
2023-03-19T12:56:21.569Z,33
2023-03-19T13:01:21.572Z,43
2023-03-19T13:06:21.563Z,31
2023-03-19T13:11:21.576Z,31
2023-03-19T13:16:21.568Z,37
2023-03-19T13:21:21.581Z,40
2023-03-19T13:26:21.583Z,28
2023-03-19T13:31:21.575Z,38
2023-03-19T13:36:21.589Z,33
2023-03-19T13:41:21.579Z,40
2023-03-19T13:46:21.593Z,40
2023-03-19T13:51:21.595Z,34
2023-03-19T13:56:21.597Z,37
2023-03-19T14:01:21.600Z,41
2023-03-19T14:06:21.591Z,42
2023-03-19T14:11:21.604Z,52
2023-03-19T14:16:21.596Z,45
2023-03-19T14:21:21.609Z,39
2023-03-19T14:26:21.611Z,40
2023-03-19T14:31:21.603Z,43
2023-03-19T14:36:21.616Z,40
2023-03-19T14:41:21.607Z,42
2023-03-19T14:46:21.620Z,42
2023-03-19T14:51:21.622Z,33
2023-03-19T14:56:21.624Z,40
2023-03-19T15:01:21.650Z,34
2023-03-19T15:06:21.617Z,29
2023-03-19T15:11:21.633Z,31
2023-03-19T15:16:21.621Z,29
2023-03-19T15:21:21.634Z,27
2023-03-19T15:26:21.636Z,23
2023-03-19T15:31:21.638Z,38
2023-03-19T15:36:21.640Z,29
2023-03-19T15:41:21.630Z,32
2023-03-19T15:46:21.643Z,26
2023-03-19T15:51:21.633Z,33
2023-03-19T15:56:21.646Z,26
2023-03-19T16:01:21.647Z,29
2023-03-19T16:06:21.638Z,24
2023-03-19T16:11:21.651Z,26
2023-03-19T16:16:21.641Z,23
2023-03-19T16:21:21.653Z,25
2023-03-19T16:26:21.655Z,29
2023-03-19T16:31:21.657Z,33
2023-03-19T16:36:21.659Z,32
2023-03-19T16:41:21.648Z,23
2023-03-19T16:46:21.661Z,29
2023-03-19T16:51:21.651Z,24
2023-03-19T16:56:21.664Z,33
2023-03-19T17:01:21.665Z,27
2023-03-19T17:06:21.656Z,21
2023-03-19T17:11:21.669Z,26
2023-03-19T17:16:21.659Z,28
2023-03-19T17:21:21.671Z,24
2023-03-19T17:26:21.672Z,19
2023-03-19T17:31:21.674Z,21
2023-03-19T17:36:21.699Z,24
2023-03-19T17:41:21.666Z,21
2023-03-19T17:46:21.682Z,25
2023-03-19T17:51:21.669Z,31
2023-03-19T17:56:21.681Z,28
2023-03-19T18:01:21.683Z,27
2023-03-19T18:06:21.684Z,26
2023-03-19T18:11:21.686Z,26
2023-03-19T18:16:21.687Z,22
2023-03-19T18:21:21.689Z,21
2023-03-19T18:26:21.679Z,21
2023-03-19T18:31:21.691Z,28
2023-03-19T18:36:21.693Z,23
2023-03-19T18:41:21.683Z,28
2023-03-19T18:46:21.696Z,20
2023-03-19T18:51:21.686Z,24
2023-03-19T18:56:21.698Z,29
2023-03-19T19:01:21.699Z,22
2023-03-19T19:06:21.701Z,24
2023-03-19T19:11:21.703Z,20
2023-03-19T19:16:21.693Z,25
2023-03-19T19:21:21.705Z,28
2023-03-19T19:26:21.695Z,19
2023-03-19T19:31:21.707Z,17
2023-03-19T19:36:21.709Z,21
2023-03-19T19:41:21.699Z,23
2023-03-19T19:46:21.712Z,24
2023-03-19T19:51:21.702Z,19
2023-03-19T19:56:21.714Z,25
2023-03-19T20:01:21.715Z,17
2023-03-19T20:06:21.716Z,24
2023-03-19T20:11:21.742Z,20
2023-03-19T20:16:21.708Z,27
2023-03-19T20:21:21.720Z,20
2023-03-19T20:26:21.711Z,15
2023-03-19T20:31:21.787Z,27
2023-03-19T20:36:21.724Z,26
2023-03-19T20:41:21.725Z,18
2023-03-19T20:46:21.727Z,22
2023-03-19T20:51:21.717Z,17
2023-03-19T20:56:21.729Z,14
2023-03-19T21:01:21.719Z,22
2023-03-19T21:06:21.732Z,21
2023-03-19T21:11:21.733Z,16
2023-03-19T21:16:21.723Z,19
2023-03-19T21:21:21.736Z,22
2023-03-19T21:26:21.726Z,16
2023-03-19T21:31:21.738Z,18
2023-03-19T21:36:21.739Z,18
2023-03-19T21:41:21.741Z,21
2023-03-19T21:46:21.742Z,21
2023-03-19T21:51:21.732Z,21
2023-03-19T21:56:21.744Z,23
2023-03-19T22:01:21.735Z,21
2023-03-19T22:06:21.747Z,24
2023-03-19T22:11:21.748Z,25
2023-03-19T22:16:21.739Z,17
2023-03-19T22:21:21.752Z,17
2023-03-19T22:26:21.741Z,17
2023-03-19T22:31:21.753Z,19
2023-03-19T22:36:21.755Z,18
2023-03-19T22:41:21.756Z,16
2023-03-19T22:46:21.805Z,16
2023-03-19T22:51:21.748Z,19
2023-03-19T22:56:21.763Z,17
2023-03-19T23:01:21.750Z,19
2023-03-19T23:06:21.762Z,23
2023-03-19T23:11:21.764Z,22
2023-03-19T23:16:21.814Z,21
2023-03-19T23:21:21.767Z,17
2023-03-19T23:26:21.757Z,22
2023-03-19T23:31:21.769Z,22
2023-03-19T23:36:21.759Z,18
2023-03-19T23:41:21.772Z,18
2023-03-19T23:46:21.773Z,22
2023-03-19T23:51:21.763Z,14
2023-03-19T23:56:21.776Z,13
